createdAt,value
2018-06-08T00:00:43.451Z,0.00
2018-06-08T00:01:43.435Z,0.00
2018-06-08T00:02:43.440Z,0.00
2018-06-08T00:03:43.426Z,0.00
2018-06-08T00:04:43.430Z,0.00
2018-06-08T00:05:43.424Z,0.00
2018-06-08T00:06:43.422Z,0.00
2018-06-08T00:07:43.418Z,0.00
2018-06-08T00:08:43.416Z,0.00
2018-06-08T00:09:43.409Z,0.00
2018-06-08T00:10:43.406Z,0.00
2018-06-08T00:11:43.405Z,0.00
2018-06-08T00:12:43.403Z,0.00
2018-06-08T00:13:43.424Z,0.00
2018-06-08T00:14:43.398Z,0.00
2018-06-08T00:15:43.391Z,0.00
2018-06-08T00:16:43.388Z,0.00
2018-06-08T00:17:43.382Z,0.00
2018-06-08T00:18:43.382Z,0.00
2018-06-08T00:19:43.381Z,0.00
2018-06-08T00:20:43.379Z,0.00
2018-06-08T00:21:43.371Z,0.00
2018-06-08T00:22:43.368Z,0.00
2018-06-08T00:23:43.363Z,0.00
2018-06-08T00:24:43.365Z,0.00
2018-06-08T00:25:43.358Z,0.00
2018-06-08T00:26:43.360Z,0.00
2018-06-08T00:27:43.352Z,0.00
2018-06-08T00:28:43.346Z,0.00
2018-06-08T00:29:43.347Z,0.00
2018-06-08T00:30:43.337Z,0.00
2018-06-08T00:31:43.335Z,0.00
2018-06-08T00:32:43.333Z,0.00
2018-06-08T00:33:43.331Z,0.00
2018-06-08T00:34:43.328Z,0.00
2018-06-08T00:35:43.323Z,0.00
2018-06-08T00:36:43.319Z,0.00
2018-06-08T00:37:43.318Z,0.00
2018-06-08T00:38:43.313Z,0.00
2018-06-08T00:39:43.311Z,0.00
2018-06-08T00:40:43.309Z,0.00
2018-06-08T00:41:43.306Z,0.00
2018-06-08T00:42:43.303Z,0.00
2018-06-08T00:43:43.293Z,0.00
2018-06-08T00:44:43.301Z,0.00
2018-06-08T00:45:43.289Z,0.00
2018-06-08T00:46:43.292Z,0.00
2018-06-08T00:47:43.282Z,0.00
2018-06-08T00:48:43.279Z,0.00
2018-06-08T00:49:43.275Z,0.00
2018-06-08T00:50:43.269Z,0.00
2018-06-08T00:51:43.265Z,0.00
2018-06-08T00:52:43.259Z,0.00
2018-06-08T00:53:43.262Z,0.00
2018-06-08T00:54:43.257Z,0.00
2018-06-08T00:55:43.255Z,0.00
2018-06-08T00:56:43.247Z,0.00
2018-06-08T00:57:43.242Z,0.00
2018-06-08T00:58:44.116Z,0.00
2018-06-08T00:59:43.236Z,0.00
2018-06-08T01:00:43.239Z,0.00
2018-06-08T01:01:43.229Z,0.00
2018-06-08T01:02:43.227Z,0.00
2018-06-08T01:03:43.223Z,0.00
2018-06-08T01:04:44.119Z,0.00
2018-06-08T01:05:44.121Z,0.00
2018-06-08T01:06:43.208Z,0.00
2018-06-08T01:07:43.209Z,0.00
2018-06-08T01:08:43.210Z,0.00
2018-06-08T01:09:43.199Z,0.00
2018-06-08T01:10:43.194Z,0.00
2018-06-08T01:11:43.191Z,0.00
2018-06-08T01:12:43.187Z,0.00
2018-06-08T01:13:43.182Z,0.00
2018-06-08T01:14:43.180Z,0.00
2018-06-08T01:15:43.181Z,0.00
2018-06-08T01:16:43.177Z,0.00
2018-06-08T01:17:43.166Z,0.00
2018-06-08T01:18:43.171Z,0.00
2018-06-08T01:19:43.163Z,0.00
2018-06-08T01:20:43.157Z,0.00
2018-06-08T01:21:43.162Z,0.00
2018-06-08T01:22:43.159Z,0.00
2018-06-08T01:23:43.148Z,0.00
2018-06-08T01:24:43.144Z,0.00
2018-06-08T01:25:43.134Z,0.00
2018-06-08T01:26:43.135Z,0.00
2018-06-08T01:27:43.130Z,0.00
2018-06-08T01:28:43.128Z,0.00
2018-06-08T01:29:43.127Z,0.00
2018-06-08T01:30:43.121Z,0.00
2018-06-08T01:31:43.117Z,0.00
2018-06-08T01:32:43.111Z,0.00
2018-06-08T01:33:43.109Z,0.00
2018-06-08T01:34:43.107Z,0.00
2018-06-08T01:35:43.114Z,0.00
2018-06-08T01:36:43.098Z,0.00
2018-06-08T01:37:43.149Z,0.00
2018-06-08T01:38:43.087Z,0.00
2018-06-08T01:39:43.085Z,0.00
2018-06-08T01:40:43.080Z,0.00
2018-06-08T01:41:43.079Z,0.00
2018-06-08T01:42:43.074Z,0.00
2018-06-08T01:43:43.066Z,0.00
2018-06-08T01:44:43.067Z,0.00
2018-06-08T01:45:43.059Z,0.00
2018-06-08T01:46:43.056Z,0.00
2018-06-08T01:47:43.050Z,0.00
2018-06-08T01:48:43.069Z,0.00
2018-06-08T01:49:43.045Z,0.00
2018-06-08T01:50:43.042Z,0.00
2018-06-08T01:51:43.040Z,0.00
2018-06-08T01:52:43.050Z,0.00
2018-06-08T01:53:43.066Z,0.00
2018-06-08T01:54:43.024Z,0.00
2018-06-08T01:55:43.021Z,0.00
2018-06-08T01:56:43.021Z,0.00
2018-06-08T01:57:43.032Z,0.00
2018-06-08T01:58:43.013Z,0.00
2018-06-08T01:59:43.004Z,0.00
2018-06-08T02:00:43.058Z,0.00
2018-06-08T02:01:42.996Z,0.00
2018-06-08T02:02:43.026Z,0.00
2018-06-08T02:03:43.026Z,0.00
2018-06-08T02:04:43.006Z,0.00
2018-06-08T02:05:42.984Z,0.00
2018-06-08T02:06:42.977Z,0.00
2018-06-08T02:07:42.973Z,0.00
2018-06-08T02:08:42.981Z,0.00
2018-06-08T02:09:42.966Z,0.00
2018-06-08T02:10:42.968Z,0.00
2018-06-08T02:11:42.959Z,0.00
2018-06-08T02:12:42.961Z,0.00
2018-06-08T02:13:42.952Z,0.00
2018-06-08T02:14:42.949Z,0.00
2018-06-08T02:15:42.947Z,0.00
2018-06-08T02:16:42.943Z,0.00
2018-06-08T02:17:42.938Z,0.00
2018-06-08T02:18:42.935Z,0.00
2018-06-08T02:19:42.932Z,0.00
2018-06-08T02:20:42.923Z,0.00
2018-06-08T02:21:42.920Z,0.00
2018-06-08T02:22:42.931Z,0.00
2018-06-08T02:23:42.917Z,0.00
2018-06-08T02:24:42.913Z,0.00
2018-06-08T02:25:42.904Z,0.00
2018-06-08T02:26:42.904Z,0.00
2018-06-08T02:27:42.897Z,0.00
2018-06-08T02:28:42.893Z,0.00
2018-06-08T02:29:42.888Z,4.00
2018-06-08T02:30:42.889Z,4.00
2018-06-08T02:31:42.886Z,0.00
2018-06-08T02:32:42.882Z,0.00
2018-06-08T02:33:42.878Z,4.00
2018-06-08T02:34:42.872Z,4.00
2018-06-08T02:35:42.868Z,4.00
2018-06-08T02:36:42.874Z,4.00
2018-06-08T02:37:42.869Z,4.00
2018-06-08T02:38:42.866Z,8.00
2018-06-08T02:39:42.855Z,4.00
2018-06-08T02:40:42.854Z,8.00
2018-06-08T02:41:42.843Z,4.00
2018-06-08T02:42:42.840Z,4.00
2018-06-08T02:43:42.841Z,8.00
2018-06-08T02:44:42.836Z,8.00
2018-06-08T02:45:42.833Z,8.00
2018-06-08T02:46:42.834Z,12.00
2018-06-08T02:47:42.825Z,12.00
2018-06-08T02:48:42.820Z,12.00
2018-06-08T02:49:42.816Z,16.00
2018-06-08T02:50:42.816Z,16.00
2018-06-08T02:51:42.825Z,20.00
2018-06-08T02:52:42.806Z,20.00
2018-06-08T02:53:42.801Z,20.00
2018-06-08T02:54:42.797Z,24.00
2018-06-08T02:55:42.797Z,24.00
2018-06-08T02:56:42.794Z,28.00
2018-06-08T02:57:42.796Z,32.00
2018-06-08T02:58:42.786Z,36.00
2018-06-08T02:59:42.782Z,40.00
2018-06-08T03:00:42.781Z,48.00
2018-06-08T03:01:42.772Z,52.00
2018-06-08T03:02:42.768Z,64.00
2018-06-08T03:03:42.763Z,68.00
2018-06-08T03:04:42.762Z,76.00
2018-06-08T03:05:42.764Z,84.00
2018-06-08T03:06:42.756Z,88.00
2018-06-08T03:07:42.753Z,96.00
2018-06-08T03:08:42.746Z,100.00
2018-06-08T03:09:42.741Z,108.00
2018-06-08T03:10:42.738Z,116.00
2018-06-08T03:11:42.733Z,132.00
2018-06-08T03:12:42.733Z,148.00
2018-06-08T03:13:42.731Z,164.00
2018-06-08T03:14:42.725Z,172.00
2018-06-08T03:15:42.723Z,184.00
2018-06-08T03:16:42.715Z,192.00
2018-06-08T03:17:42.712Z,204.00
2018-06-08T03:18:42.706Z,212.00
2018-06-08T03:19:42.704Z,228.00
2018-06-08T03:20:42.711Z,240.00
2018-06-08T03:21:42.700Z,260.00
2018-06-08T03:22:42.696Z,276.00
2018-06-08T03:23:42.691Z,292.00
2018-06-08T03:24:42.687Z,308.00
2018-06-08T03:25:42.681Z,324.00
2018-06-08T03:26:42.684Z,340.00
2018-06-08T03:27:42.678Z,356.00
2018-06-08T03:28:42.669Z,372.00
2018-06-08T03:29:42.664Z,388.00
2018-06-08T03:30:42.668Z,404.00
2018-06-08T03:31:42.658Z,416.00
2018-06-08T03:32:42.671Z,432.00
2018-06-08T03:33:42.654Z,452.00
2018-06-08T03:34:42.657Z,472.00
2018-06-08T03:35:42.648Z,488.00
2018-06-08T03:36:42.641Z,512.00
2018-06-08T03:37:42.637Z,536.00
2018-06-08T03:38:42.644Z,560.00
2018-06-08T03:39:42.629Z,584.00
2018-06-08T03:40:42.627Z,608.00
2018-06-08T03:41:42.630Z,632.00
2018-06-08T03:42:42.625Z,656.00
2018-06-08T03:43:42.618Z,684.00
2018-06-08T03:44:42.613Z,716.00
2018-06-08T03:45:42.608Z,748.00
2018-06-08T03:46:42.604Z,776.00
2018-06-08T03:47:42.605Z,808.00
2018-06-08T03:48:42.602Z,840.00
2018-06-08T03:49:42.596Z,872.00
2018-06-08T03:50:42.593Z,908.00
2018-06-08T03:51:42.585Z,936.00
2018-06-08T03:52:42.582Z,972.00
2018-06-08T03:53:42.581Z,1000.00
2018-06-08T03:54:42.577Z,1032.00
2018-06-08T03:55:42.573Z,1060.00
2018-06-08T03:56:42.571Z,1084.00
2018-06-08T03:57:42.563Z,1104.00
2018-06-08T03:58:42.559Z,1120.00
2018-06-08T03:59:42.556Z,1144.00
2018-06-08T04:00:42.558Z,1164.00
2018-06-08T04:01:42.551Z,1180.00
2018-06-08T04:02:42.548Z,1196.00
2018-06-08T04:03:42.545Z,1196.00
2018-06-08T04:04:42.540Z,1196.00
2018-06-08T04:05:42.533Z,1192.00
2018-06-08T04:06:42.530Z,1188.00
2018-06-08T04:07:42.534Z,1180.00
2018-06-08T04:08:42.527Z,1176.00
2018-06-08T04:09:42.551Z,1160.00
2018-06-08T04:10:42.520Z,1144.00
2018-06-08T04:11:42.557Z,1132.00
2018-06-08T04:12:42.509Z,1120.00
2018-06-08T04:13:42.509Z,1116.00
2018-06-08T04:14:42.503Z,1104.00
2018-06-08T04:15:42.503Z,1092.00
2018-06-08T04:16:42.500Z,1080.00
2018-06-08T04:17:42.499Z,1064.00
2018-06-08T04:18:42.491Z,1044.00
2018-06-08T04:19:42.483Z,1028.00
2018-06-08T04:20:42.484Z,1012.00
2018-06-08T04:21:42.512Z,988.00
2018-06-08T04:22:42.475Z,960.00
2018-06-08T04:23:42.477Z,936.00
2018-06-08T04:24:42.470Z,916.00
2018-06-08T04:25:42.477Z,900.00
2018-06-08T04:26:42.460Z,892.00
2018-06-08T04:27:42.458Z,900.00
2018-06-08T04:28:42.451Z,928.00
2018-06-08T04:29:42.454Z,968.00
2018-06-08T04:30:42.448Z,1016.00
2018-06-08T04:31:42.444Z,1060.00
2018-06-08T04:32:42.481Z,1100.00
2018-06-08T04:33:42.435Z,1136.00
2018-06-08T04:34:42.431Z,1180.00
2018-06-08T04:35:42.431Z,1220.00
2018-06-08T04:36:42.430Z,1272.00
2018-06-08T04:37:42.425Z,1316.00
2018-06-08T04:38:42.420Z,1372.00
2018-06-08T04:39:42.417Z,1424.00
2018-06-08T04:40:42.408Z,1468.00
2018-06-08T04:41:42.410Z,1504.00
2018-06-08T04:42:42.402Z,1532.00
2018-06-08T04:43:42.402Z,1560.00
2018-06-08T04:44:42.401Z,1604.00
2018-06-08T04:45:42.395Z,1664.00
2018-06-08T04:46:42.394Z,1740.00
2018-06-08T04:47:42.383Z,1824.00
2018-06-08T04:48:42.384Z,1912.00
2018-06-08T04:49:42.416Z,2000.00
2018-06-08T04:50:42.379Z,2080.00
2018-06-08T04:51:42.393Z,2160.00
2018-06-08T04:52:42.374Z,2240.00
2018-06-08T04:53:42.364Z,2344.00
2018-06-08T04:54:42.381Z,2460.00
2018-06-08T04:55:42.362Z,2588.00
2018-06-08T04:56:42.356Z,2720.00
2018-06-08T04:57:42.379Z,2852.00
2018-06-08T04:58:42.356Z,2932.00
2018-06-08T04:59:42.350Z,2992.00
2018-06-08T05:00:42.342Z,3036.00
2018-06-08T05:01:42.338Z,3064.00
2018-06-08T05:02:42.333Z,3112.00
2018-06-08T05:03:42.331Z,3176.00
2018-06-08T05:04:42.331Z,3244.00
2018-06-08T05:05:42.330Z,3332.00
2018-06-08T05:06:42.324Z,3424.00
2018-06-08T05:07:42.315Z,3496.00
2018-06-08T05:08:42.316Z,3572.00
2018-06-08T05:09:42.353Z,3660.00
2018-06-08T05:10:42.311Z,3712.00
2018-06-08T05:11:42.313Z,3716.00
2018-06-08T05:12:42.308Z,3664.00
2018-06-08T05:13:42.299Z,3592.00
2018-06-08T05:14:42.297Z,3540.00
2018-06-08T05:15:42.292Z,3480.00
2018-06-08T05:16:42.289Z,3428.00
2018-06-08T05:17:42.281Z,3400.00
2018-06-08T05:18:42.283Z,3396.00
2018-06-08T05:19:42.292Z,3440.00
2018-06-08T05:20:42.276Z,3464.00
2018-06-08T05:21:42.276Z,3484.00
2018-06-08T05:22:42.276Z,3456.00
2018-06-08T05:23:42.267Z,3452.00
2018-06-08T05:24:42.308Z,3508.00
2018-06-08T05:25:42.262Z,3624.00
2018-06-08T05:26:42.264Z,3796.00
2018-06-08T05:27:42.256Z,4004.00
2018-06-08T05:28:42.254Z,4208.00
2018-06-08T05:29:42.256Z,4404.00
2018-06-08T05:30:42.244Z,4584.00
2018-06-08T05:31:42.241Z,4776.00
2018-06-08T05:32:42.247Z,4980.00
2018-06-08T05:33:42.237Z,5188.00
2018-06-08T05:34:42.233Z,5324.00
2018-06-08T05:35:42.231Z,5448.00
2018-06-08T05:36:42.223Z,5568.00
2018-06-08T05:37:42.221Z,5688.00
2018-06-08T05:38:42.217Z,5860.00
2018-06-08T05:39:42.217Z,6096.00
2018-06-08T05:40:42.216Z,6424.00
2018-06-08T05:41:42.213Z,6744.00
2018-06-08T05:42:42.207Z,6964.00
2018-06-08T05:43:42.206Z,7112.00
2018-06-08T05:44:42.204Z,7204.00
2018-06-08T05:45:42.203Z,7244.00
2018-06-08T05:46:42.199Z,7288.00
2018-06-08T05:47:42.198Z,7336.00
2018-06-08T05:48:42.195Z,7384.00
2018-06-08T05:49:42.188Z,7420.00
2018-06-08T05:50:42.183Z,7444.00
2018-06-08T05:51:42.184Z,7448.00
2018-06-08T05:52:42.183Z,7424.00
2018-06-08T05:53:42.193Z,7416.00
2018-06-08T05:54:42.186Z,7412.00
2018-06-08T05:55:42.176Z,7464.00
2018-06-08T05:56:42.167Z,7540.00
2018-06-08T05:57:42.166Z,7644.00
2018-06-08T05:58:42.167Z,7752.00
2018-06-08T05:59:42.161Z,7864.00
2018-06-08T06:00:42.162Z,7972.00
2018-06-08T06:01:42.158Z,8080.00
2018-06-08T06:02:42.157Z,8196.00
2018-06-08T06:03:42.163Z,8276.00
2018-06-08T06:04:42.173Z,8300.00
2018-06-08T06:05:42.162Z,8284.00
2018-06-08T06:06:42.151Z,8228.00
2018-06-08T06:07:42.147Z,8180.00
2018-06-08T06:08:42.146Z,8340.00
2018-06-08T06:09:42.143Z,8160.00
2018-06-08T06:10:42.133Z,8060.00
2018-06-08T06:11:42.132Z,7944.00
2018-06-08T06:12:42.133Z,7792.00
2018-06-08T06:13:42.156Z,7608.00
2018-06-08T06:14:42.132Z,7452.00
2018-06-08T06:15:42.162Z,7300.00
2018-06-08T06:16:42.155Z,7108.00
2018-06-08T06:17:42.122Z,6884.00
2018-06-08T06:18:42.123Z,6644.00
2018-06-08T06:19:42.117Z,6404.00
2018-06-08T06:20:42.121Z,6200.00
2018-06-08T06:21:42.119Z,6052.00
2018-06-08T06:22:42.113Z,5960.00
2018-06-08T06:23:42.113Z,5908.00
2018-06-08T06:24:42.107Z,5892.00
2018-06-08T06:25:42.108Z,5884.00
2018-06-08T06:26:42.112Z,5896.00
2018-06-08T06:27:42.108Z,5920.00
2018-06-08T06:28:42.104Z,5960.00
2018-06-08T06:29:42.102Z,6040.00
2018-06-08T06:30:42.100Z,6108.00
2018-06-08T06:31:42.100Z,6140.00
2018-06-08T06:32:42.095Z,6164.00
2018-06-08T06:33:42.086Z,6152.00
2018-06-08T06:34:42.088Z,6148.00
2018-06-08T06:35:42.089Z,6148.00
2018-06-08T06:36:42.082Z,6152.00
2018-06-08T06:37:42.087Z,6160.00
2018-06-08T06:38:42.083Z,6188.00
2018-06-08T06:39:42.125Z,6224.00
2018-06-08T06:40:42.095Z,6272.00
2018-06-08T06:41:42.076Z,6332.00
2018-06-08T06:42:42.086Z,6392.00
2018-06-08T06:43:42.068Z,6448.00
2018-06-08T06:44:42.067Z,6488.00
2018-06-08T06:45:42.063Z,6524.00
2018-06-08T06:46:42.132Z,6560.00
2018-06-08T06:47:42.066Z,6592.00
2018-06-08T06:48:42.064Z,6628.00
2018-06-08T06:49:42.065Z,6692.00
2018-06-08T06:50:42.069Z,6764.00
2018-06-08T06:51:42.074Z,6832.00
2018-06-08T06:52:42.111Z,6864.00
2018-06-08T06:53:42.255Z,6884.00
2018-06-08T06:54:42.050Z,6912.00
2018-06-08T06:55:42.045Z,6932.00
2018-06-08T06:56:42.041Z,6920.00
2018-06-08T06:57:42.044Z,6864.00
2018-06-08T06:58:42.044Z,6800.00
2018-06-08T06:59:42.044Z,6744.00
2018-06-08T07:00:42.047Z,6688.00
2018-06-08T07:01:42.036Z,6640.00
2018-06-08T07:02:42.036Z,6592.00
2018-06-08T07:03:42.037Z,6540.00
2018-06-08T07:04:42.037Z,6500.00
2018-06-08T07:05:42.025Z,6472.00
2018-06-08T07:06:42.031Z,6464.00
2018-06-08T07:07:42.039Z,6468.00
2018-06-08T07:08:42.021Z,6480.00
2018-06-08T07:09:42.023Z,6492.00
2018-06-08T07:10:42.022Z,6540.00
2018-06-08T07:11:42.020Z,6600.00
2018-06-08T07:12:42.061Z,6672.00
2018-06-08T07:13:42.021Z,6744.00
2018-06-08T07:14:42.016Z,6820.00
2018-06-08T07:15:42.012Z,6892.00
2018-06-08T07:16:42.009Z,6956.00
2018-06-08T07:17:42.013Z,7016.00
2018-06-08T07:18:42.068Z,7052.00
2018-06-08T07:19:42.003Z,7072.00
2018-06-08T07:20:42.006Z,7072.00
2018-06-08T07:21:42.001Z,7064.00
2018-06-08T07:22:41.997Z,7064.00
2018-06-08T07:23:41.993Z,7080.00
2018-06-08T07:24:42.043Z,7112.00
2018-06-08T07:25:41.990Z,7152.00
2018-06-08T07:26:41.987Z,7212.00
2018-06-08T07:27:41.994Z,7292.00
2018-06-08T07:28:41.989Z,7412.00
2018-06-08T07:29:41.987Z,7584.00
2018-06-08T07:30:41.983Z,7784.00
2018-06-08T07:31:42.058Z,7992.00
2018-06-08T07:32:41.977Z,8188.00
2018-06-08T07:33:41.977Z,8392.00
2018-06-08T07:34:41.978Z,8604.00
2018-06-08T07:35:41.975Z,8852.00
2018-06-08T07:36:41.976Z,9192.00
2018-06-08T07:37:41.970Z,9544.00
2018-06-08T07:38:41.968Z,9880.00
2018-06-08T07:39:41.966Z,10172.00
2018-06-08T07:40:41.981Z,10476.00
2018-06-08T07:41:41.969Z,10700.00
2018-06-08T07:42:41.969Z,10700.00
2018-06-08T07:43:41.967Z,10572.00
2018-06-08T07:44:41.960Z,10276.00
2018-06-08T07:45:41.957Z,9932.00
2018-06-08T07:46:41.982Z,9556.00
2018-06-08T07:47:41.959Z,9208.00
2018-06-08T07:48:41.962Z,8968.00
2018-06-08T07:49:41.958Z,8800.00
2018-06-08T07:50:41.954Z,8652.00
2018-06-08T07:51:41.962Z,8488.00
2018-06-08T07:52:41.947Z,8300.00
2018-06-08T07:53:42.005Z,8060.00
2018-06-08T07:54:41.952Z,7788.00
2018-06-08T07:55:41.947Z,7540.00
2018-06-08T07:56:41.950Z,7352.00
2018-06-08T07:57:41.944Z,7228.00
2018-06-08T07:58:41.945Z,7172.00
2018-06-08T07:59:41.938Z,7168.00
2018-06-08T08:00:41.943Z,7172.00
2018-06-08T08:01:41.934Z,7160.00
2018-06-08T08:02:41.937Z,7128.00
2018-06-08T08:03:41.952Z,7080.00
2018-06-08T08:04:41.947Z,7032.00
2018-06-08T08:05:41.937Z,7020.00
2018-06-08T08:06:41.934Z,7052.00
2018-06-08T08:07:41.934Z,7128.00
2018-06-08T08:08:41.933Z,7228.00
2018-06-08T08:09:41.930Z,7328.00
2018-06-08T08:10:41.923Z,7440.00
2018-06-08T08:11:41.926Z,7528.00
2018-06-08T08:12:41.922Z,7636.00
2018-06-08T08:13:41.924Z,7724.00
2018-06-08T08:14:41.922Z,7784.00
2018-06-08T08:15:41.925Z,7812.00
2018-06-08T08:16:41.918Z,7832.00
2018-06-08T08:17:41.921Z,7820.00
2018-06-08T08:18:41.932Z,7800.00
2018-06-08T08:19:41.942Z,7788.00
2018-06-08T08:20:41.927Z,7808.00
2018-06-08T08:21:41.919Z,7852.00
2018-06-08T08:22:41.923Z,7856.00
2018-06-08T08:23:41.914Z,7820.00
2018-06-08T08:24:41.923Z,7784.00
2018-06-08T08:25:41.945Z,7732.00
2018-06-08T08:26:41.901Z,7676.00
2018-06-08T08:27:42.838Z,7584.00
2018-06-08T08:28:41.926Z,7492.00
2018-06-08T08:29:41.902Z,7432.00
2018-06-08T08:30:41.907Z,7384.00
2018-06-08T08:31:41.899Z,7308.00
2018-06-08T08:32:42.107Z,7232.00
2018-06-08T08:33:43.129Z,7188.00
2018-06-08T08:34:41.897Z,7148.00
2018-06-08T08:35:41.902Z,7084.00
2018-06-08T08:36:41.907Z,7044.00
2018-06-08T08:37:42.145Z,7092.00
2018-06-08T08:38:41.930Z,7152.00
2018-06-08T08:39:41.988Z,7176.00
2018-06-08T08:40:41.940Z,7172.00
2018-06-08T08:41:41.883Z,7196.00
2018-06-08T08:42:41.884Z,7320.00
2018-06-08T08:43:41.889Z,7544.00
2018-06-08T08:44:41.883Z,7648.00
2018-06-08T08:45:41.892Z,7868.00
2018-06-08T08:46:41.882Z,8100.00
2018-06-08T08:47:41.887Z,8324.00
2018-06-08T08:48:41.881Z,8572.00
2018-06-08T08:49:41.876Z,8880.00
2018-06-08T08:50:41.877Z,9260.00
2018-06-08T08:51:41.887Z,9712.00
2018-06-08T08:52:41.874Z,9988.00
2018-06-08T08:53:41.865Z,10104.00
2018-06-08T08:54:41.865Z,10000.00
2018-06-08T08:55:41.862Z,9652.00
2018-06-08T08:56:41.866Z,9172.00
2018-06-08T08:57:41.864Z,8668.00
2018-06-08T08:58:41.867Z,8280.00
2018-06-08T08:59:41.897Z,8080.00
2018-06-08T09:00:41.856Z,8100.00
2018-06-08T09:01:41.853Z,8240.00
2018-06-08T09:02:41.934Z,8288.00
2018-06-08T09:03:41.881Z,8368.00
2018-06-08T09:04:41.863Z,8540.00
2018-06-08T09:05:41.845Z,8896.00
2018-06-08T09:06:41.842Z,9428.00
2018-06-08T09:07:41.842Z,10052.00
2018-06-08T09:08:42.359Z,10708.00
2018-06-08T09:09:41.837Z,11332.00
2018-06-08T09:10:42.363Z,11776.00
2018-06-08T09:11:41.837Z,12060.00
2018-06-08T09:12:41.851Z,12196.00
2018-06-08T09:13:41.833Z,12308.00
2018-06-08T09:14:41.826Z,12336.00
2018-06-08T09:15:41.830Z,12276.00
2018-06-08T09:16:41.822Z,12200.00
2018-06-08T09:17:41.841Z,12212.00
2018-06-08T09:18:41.822Z,12264.00
2018-06-08T09:19:41.820Z,12404.00
2018-06-08T09:20:41.819Z,12424.00
2018-06-08T09:21:41.816Z,12424.00
2018-06-08T09:22:41.824Z,12616.00
2018-06-08T09:23:41.823Z,12728.00
2018-06-08T09:24:41.832Z,12804.00
2018-06-08T09:25:41.803Z,12768.00
2018-06-08T09:26:41.839Z,12684.00
2018-06-08T09:27:41.840Z,12524.00
2018-06-08T09:28:41.811Z,12236.00
2018-06-08T09:29:41.799Z,11876.00
2018-06-08T09:30:41.826Z,11436.00
2018-06-08T09:31:41.798Z,10984.00
2018-06-08T09:32:41.793Z,10588.00
2018-06-08T09:33:41.816Z,10300.00
2018-06-08T09:34:41.790Z,10092.00
2018-06-08T09:35:41.799Z,9928.00
2018-06-08T09:36:41.779Z,9820.00
2018-06-08T09:37:41.776Z,9724.00
2018-06-08T09:38:41.777Z,9596.00
2018-06-08T09:39:41.792Z,9452.00
2018-06-08T09:40:42.383Z,9352.00
2018-06-08T09:41:41.797Z,9360.00
2018-06-08T09:42:41.766Z,9496.00
2018-06-08T09:43:41.768Z,9736.00
2018-06-08T09:44:41.786Z,10048.00
2018-06-08T09:45:41.776Z,10408.00
2018-06-08T09:46:41.767Z,10728.00
2018-06-08T09:47:41.762Z,10964.00
2018-06-08T09:48:41.753Z,11136.00
2018-06-08T09:49:41.760Z,11320.00
2018-06-08T09:50:41.752Z,11516.00
2018-06-08T09:51:41.746Z,11696.00
2018-06-08T09:52:41.751Z,11824.00
2018-06-08T09:53:41.747Z,11968.00
2018-06-08T09:54:41.786Z,12216.00
2018-06-08T09:55:41.739Z,12520.00
2018-06-08T09:56:41.736Z,12844.00
2018-06-08T09:57:41.737Z,13156.00
2018-06-08T09:58:41.734Z,13540.00
2018-06-08T09:59:41.732Z,14024.00
2018-06-08T10:00:41.738Z,14412.00
2018-06-08T10:01:41.731Z,14580.00
2018-06-08T10:02:41.724Z,14336.00
2018-06-08T10:03:41.720Z,13508.00
2018-06-08T10:04:41.723Z,12200.00
2018-06-08T10:05:41.720Z,10664.00
2018-06-08T10:06:41.715Z,9252.00
2018-06-08T10:07:41.718Z,8132.00
2018-06-08T10:08:41.709Z,7388.00
2018-06-08T10:09:41.710Z,6884.00
2018-06-08T10:10:41.707Z,6488.00
2018-06-08T10:11:41.734Z,6176.00
2018-06-08T10:12:41.702Z,5928.00
2018-06-08T10:13:41.704Z,5676.00
2018-06-08T10:14:41.702Z,5460.00
2018-06-08T10:15:41.700Z,5260.00
2018-06-08T10:16:41.765Z,5088.00
2018-06-08T10:17:41.689Z,4960.00
2018-06-08T10:18:41.688Z,4900.00
2018-06-08T10:19:41.685Z,4892.00
2018-06-08T10:20:41.686Z,4924.00
2018-06-08T10:21:41.684Z,4988.00
2018-06-08T10:22:41.678Z,5056.00
2018-06-08T10:23:41.677Z,5140.00
2018-06-08T10:24:41.689Z,5240.00
2018-06-08T10:25:41.670Z,5356.00
2018-06-08T10:26:41.751Z,5472.00
2018-06-08T10:27:41.690Z,5548.00
2018-06-08T10:28:41.676Z,5588.00
2018-06-08T10:29:41.674Z,5572.00
2018-06-08T10:30:41.658Z,5476.00
2018-06-08T10:31:41.664Z,5304.00
2018-06-08T10:32:41.654Z,5092.00
2018-06-08T10:33:41.710Z,4892.00
2018-06-08T10:34:41.660Z,4708.00
2018-06-08T10:35:41.650Z,4552.00
2018-06-08T10:36:41.648Z,4364.00
2018-06-08T10:37:41.646Z,4148.00
2018-06-08T10:38:41.642Z,3900.00
2018-06-08T10:39:41.641Z,3652.00
2018-06-08T10:40:41.656Z,3424.00
2018-06-08T10:41:41.663Z,3232.00
2018-06-08T10:42:41.643Z,3076.00
2018-06-08T10:43:41.637Z,2952.00
2018-06-08T10:44:41.625Z,2848.00
2018-06-08T10:45:41.624Z,2748.00
2018-06-08T10:46:41.626Z,2672.00
2018-06-08T10:47:41.621Z,2592.00
2018-06-08T10:48:41.621Z,2524.00
2018-06-08T10:49:41.610Z,2456.00
2018-06-08T10:50:41.610Z,2400.00
2018-06-08T10:51:41.609Z,2320.00
2018-06-08T10:52:41.606Z,2252.00
2018-06-08T10:53:41.623Z,2176.00
2018-06-08T10:54:42.471Z,2124.00
2018-06-08T10:55:42.417Z,2104.00
2018-06-08T10:56:43.833Z,2060.00
2018-06-08T10:57:41.722Z,2028.00
2018-06-08T11:04:53.067Z,1976.00
2018-06-08T11:05:52.256Z,1984.00
2018-06-08T11:06:52.221Z,1996.00
2018-06-08T11:07:52.269Z,2004.00
2018-06-08T11:08:52.335Z,1996.00
2018-06-08T11:09:52.192Z,1984.00
2018-06-08T11:10:52.190Z,1956.00
2018-06-08T11:11:52.194Z,1900.00
2018-06-08T11:12:52.186Z,1840.00
2018-06-08T11:13:52.184Z,1808.00
2018-06-08T11:14:52.181Z,1780.00
2018-06-08T11:15:52.179Z,1764.00
2018-06-08T11:16:52.196Z,1748.00
2018-06-08T11:17:52.182Z,1740.00
2018-06-08T11:18:52.189Z,1744.00
2018-06-08T11:19:52.175Z,1732.00
2018-06-08T11:20:52.202Z,1712.00
2018-06-08T11:21:52.166Z,1664.00
2018-06-08T11:22:52.163Z,1572.00
2018-06-08T11:23:52.167Z,1416.00
2018-06-08T11:24:52.148Z,1236.00
2018-06-08T11:25:52.152Z,1052.00
2018-06-08T11:26:52.150Z,936.00
2018-06-08T11:27:52.162Z,860.00
2018-06-08T11:28:52.133Z,840.00
2018-06-08T11:29:52.127Z,868.00
2018-06-08T11:30:52.120Z,928.00
2018-06-08T11:31:52.118Z,988.00
2018-06-08T11:32:52.124Z,1020.00
2018-06-08T11:33:52.111Z,988.00
2018-06-08T11:34:52.113Z,944.00
2018-06-08T11:35:52.106Z,984.00
2018-06-08T11:36:52.099Z,1032.00
2018-06-08T11:37:52.110Z,1048.00
2018-06-08T11:38:52.095Z,1096.00
2018-06-08T11:39:52.090Z,1124.00
2018-06-08T11:40:52.083Z,1164.00
2018-06-08T11:41:53.002Z,1208.00
2018-06-08T11:42:52.077Z,1224.00
2018-06-08T11:43:52.075Z,1256.00
2018-06-08T11:44:52.067Z,1264.00
2018-06-08T11:45:52.115Z,1296.00
2018-06-08T11:46:52.074Z,1396.00
2018-06-08T11:47:53.003Z,1496.00
2018-06-08T11:48:52.052Z,1604.00
2018-06-08T11:49:52.076Z,1616.00
2018-06-08T11:50:52.041Z,1612.00
2018-06-08T11:51:52.044Z,1608.00
2018-06-08T11:52:52.034Z,1608.00
2018-06-08T11:53:52.049Z,1640.00
2018-06-08T11:54:52.033Z,1632.00
2018-06-08T11:55:52.021Z,1600.00
2018-06-08T11:56:52.019Z,1556.00
2018-06-08T11:57:52.015Z,1592.00
2018-06-08T11:58:52.008Z,1580.00
2018-06-08T11:59:52.005Z,1604.00
2018-06-08T12:00:52.006Z,1640.00
2018-06-08T12:01:52.052Z,1748.00
2018-06-08T12:02:52.519Z,2016.00
2018-06-08T12:03:52.509Z,2412.00
2018-06-08T12:04:51.980Z,2864.00
2018-06-08T12:05:51.979Z,3328.00
2018-06-08T12:06:51.983Z,3768.00
2018-06-08T12:07:51.978Z,4020.00
2018-06-08T12:08:51.980Z,4044.00
2018-06-08T12:09:51.993Z,4140.00
2018-06-08T12:10:52.024Z,4480.00
2018-06-08T12:11:51.951Z,4768.00
2018-06-08T12:12:52.013Z,4952.00
2018-06-08T12:13:51.938Z,5160.00
2018-06-08T12:14:51.943Z,5332.00
2018-06-08T12:15:51.935Z,5508.00
2018-06-08T12:16:51.926Z,5544.00
2018-06-08T12:17:51.946Z,5520.00
2018-06-08T12:18:51.918Z,5544.00
2018-06-08T12:19:51.910Z,5596.00
2018-06-08T12:20:51.909Z,5676.00
2018-06-08T12:21:51.899Z,5768.00
2018-06-08T12:22:51.900Z,5896.00
2018-06-08T12:23:51.899Z,5984.00
2018-06-08T12:24:51.888Z,6000.00
2018-06-08T12:25:51.881Z,6056.00
2018-06-08T12:26:51.878Z,6272.00
2018-06-08T12:27:51.879Z,6480.00
2018-06-08T12:28:51.869Z,6732.00